Time;durP1;ratioP1;P1;durP2;ratioP2;P2;SDS_P1;SDS_P2;PMS_P1;PMS_P2;Temp;Humidity;BMP_temperature;BMP_pressure;BME280_temperature;BME280_humidity;BME280_pressure;Samples;Min_cycle;Max_cycle;Signal;HPM_P1;HPM_P2
2021/10/05 00:01:44;;;;;;;1.20;0.55;;;14.20;99.90;;;;;;4415789;32;20090;-65
2021/10/05 00:04:09;;;;;;;0.75;0.75;;;14.20;99.90;;;;;;4414937;32;20124;-65
2021/10/05 00:06:35;;;;;;;0.47;0.47;;;14.30;99.90;;;;;;4415491;32;20144;-65
2021/10/05 00:09:01;;;;;;;1.45;1.00;;;14.30;99.90;;;;;;4413892;32;20518;-65
2021/10/05 00:11:27;;;;;;;0.30;0.30;;;14.30;99.90;;;;;;4415653;32;20555;-65
2021/10/05 00:13:53;;;;;;;0.37;0.37;;;14.30;99.90;;;;;;4414612;32;20062;-65
2021/10/05 00:16:19;;;;;;;0.40;0.40;;;14.30;99.90;;;;;;4400775;32;20062;-65
2021/10/05 00:18:44;;;;;;;0.55;0.55;;;14.30;99.90;;;;;;4415801;32;20531;-65
2021/10/05 00:21:10;;;;;;;0.30;0.30;;;14.20;99.90;;;;;;4414641;32;20074;-65
2021/10/05 00:23:35;;;;;;;0.30;0.30;;;14.20;99.90;;;;;;4415717;32;20066;-65
2021/10/05 00:26:01;;;;;;;0.45;0.40;;;14.10;99.90;;;;;;4415699;32;20081;-65
2021/10/05 00:28:26;;;;;;;0.30;0.30;;;14.10;99.90;;;;;;4414636;32;20066;-65
2021/10/05 00:30:52;;;;;;;0.40;0.40;;;14.20;99.90;;;;;;4415227;32;20563;-65
2021/10/05 00:33:17;;;;;;;0.43;0.43;;;14.20;99.90;;;;;;4414996;32;20078;-65
2021/10/05 00:35:43;;;;;;;0.30;0.30;;;14.20;99.90;;;;;;4415539;32;20058;-65
2021/10/05 00:38:08;;;;;;;0.37;0.37;;;14.20;99.90;;;;;;4399253;32;20082;-65
2021/10/05 00:40:34;;;;;;;0.40;0.40;;;14.30;99.90;;;;;;4430013;32;20069;-65
2021/10/05 00:42:59;;;;;;;0.40;0.40;;;14.30;99.90;;;;;;4429836;32;20103;-65
2021/10/05 00:45:24;;;;;;;0.35;0.35;;;14.30;99.90;;;;;;4416566;32;20101;-65
2021/10/05 00:47:50;;;;;;;0.43;0.43;;;14.40;99.90;;;;;;4430086;32;20076;-65
2021/10/05 00:50:16;;;;;;;0.40;0.40;;;14.40;99.90;;;;;;4429919;32;20472;-65
2021/10/05 00:52:43;;;;;;;1.95;0.73;;;14.40;99.90;;;;;;4416456;32;20209;-65
2021/10/05 00:55:11;;;;;;;0.57;0.37;;;14.30;99.90;;;;;;4418926;32;20069;-65
2021/10/05 00:57:37;;;;;;;0.32;0.32;;;14.30;99.90;;;;;;4429535;32;20061;-65
2021/10/05 01:00:06;;;;;;;0.45;0.45;;;14.30;99.90;;;;;;4430414;32;20073;-65
2021/10/05 01:02:31;;;;;;;0.30;0.30;;;14.30;99.90;;;;;;4429119;32;20523;-65
2021/10/05 01:04:57;;;;;;;1.42;0.60;;;14.40;99.90;;;;;;4430392;32;20137;-65
2021/10/05 01:07:22;;;;;;;0.30;0.30;;;14.40;99.90;;;;;;4415390;32;20062;-65
2021/10/05 01:09:48;;;;;;;0.40;0.40;;;14.40;99.90;;;;;;4428290;32;20065;-65
2021/10/05 01:12:13;;;;;;;0.50;0.50;;;14.30;99.90;;;;;;4429268;32;20065;-65
2021/10/05 01:14:39;;;;;;;0.40;0.40;;;14.40;99.90;;;;;;4428027;32;20057;-65
2021/10/05 01:17:06;;;;;;;1.10;1.00;;;14.30;99.90;;;;;;4428216;32;20065;-65
2021/10/05 01:19:32;;;;;;;0.30;0.30;;;14.40;99.90;;;;;;4416612;32;20074;-65
2021/10/05 01:21:58;;;;;;;9.70;1.27;;;14.40;99.90;;;;;;4416215;32;20423;-65
2021/10/05 01:24:24;;;;;;;0.50;0.50;;;14.40;99.90;;;;;;4428975;32;20085;-65
2021/10/05 01:26:53;;;;;;;3.97;0.88;;;14.40;99.90;;;;;;4428841;32;20126;-66
2021/10/05 01:29:21;;;;;;;0.98;0.60;;;14.40;99.90;;;;;;4429078;32;20073;-65
2021/10/05 01:31:49;;;;;;;0.40;0.40;;;14.40;99.90;;;;;;4415417;32;20083;-65
2021/10/05 01:34:16;;;;;;;0.50;0.50;;;14.40;99.90;;;;;;4429138;32;20054;-65
2021/10/05 01:36:41;;;;;;;0.50;0.50;;;14.30;99.90;;;;;;4421695;32;20319;-65
2021/10/05 01:39:24;;;;;;;0.60;0.60;;;14.30;99.90;;;;;;4419468;32;20058;-65
2021/10/05 01:41:52;;;;;;;0.43;0.43;;;14.20;99.90;;;;;;4428920;32;20523;-65
2021/10/05 01:44:18;;;;;;;0.40;0.40;;;14.20;99.90;;;;;;4427288;32;20065;-65
2021/10/05 01:46:44;;;;;;;0.73;0.57;;;14.20;99.90;;;;;;4416192;32;20073;-65
2021/10/05 01:49:14;;;;;;;0.80;0.80;;;14.20;99.90;;;;;;4429973;32;20077;-65
2021/10/05 01:51:40;;;;;;;0.95;0.77;;;14.20;99.90;;;;;;4429529;32;20058;-65
2021/10/05 01:54:05;;;;;;;5.05;0.57;;;14.20;99.90;;;;;;4430097;32;20410;-65
2021/10/05 01:56:31;;;;;;;0.65;0.60;;;14.30;99.90;;;;;;4428502;32;20074;-65
2021/10/05 01:58:56;;;;;;;0.25;0.25;;;14.30;99.90;;;;;;4429208;32;20073;-65
2021/10/05 02:01:22;;;;;;;3.90;0.80;;;14.30;99.90;;;;;;4429535;32;20444;-65
2021/10/05 02:03:47;;;;;;;1.87;1.25;;;14.30;99.90;;;;;;4429832;32;20074;-65
2021/10/05 02:06:13;;;;;;;0.50;0.50;;;14.20;99.90;;;;;;4430065;32;20081;-65
2021/10/05 02:08:38;;;;;;;0.40;0.40;;;14.20;99.90;;;;;;4415680;32;20066;-65
2021/10/05 02:11:04;;;;;;;0.50;0.50;;;14.20;99.90;;;;;;4429486;32;20070;-65
2021/10/05 02:13:30;;;;;;;0.40;0.40;;;14.20;99.90;;;;;;4426551;32;20057;-65
2021/10/05 02:15:55;;;;;;;1.48;0.57;;;14.20;99.90;;;;;;4414458;32;20401;-65
2021/10/05 02:18:21;;;;;;;0.80;0.73;;;14.20;99.90;;;;;;4414313;32;20070;-65
2021/10/05 02:20:46;;;;;;;0.50;0.50;;;14.20;99.90;;;;;;4414236;32;20054;-65
2021/10/05 02:23:12;;;;;;;0.77;0.60;;;14.20;99.90;;;;;;4413987;32;20058;-65
2021/10/05 02:25:37;;;;;;;1.77;0.77;;;14.20;99.90;;;;;;4414334;32;20070;-65
2021/10/05 02:28:04;;;;;;;3.20;1.87;;;14.20;99.90;;;;;;4413192;32;20081;-65
2021/10/05 02:30:30;;;;;;;3.60;1.02;;;14.20;99.90;;;;;;4414106;32;20078;-65
2021/10/05 02:32:56;;;;;;;0.65;0.65;;;14.10;99.90;;;;;;4414205;32;20070;-65
2021/10/05 02:35:21;;;;;;;1.80;0.75;;;14.20;99.90;;;;;;4413103;32;20405;-65
2021/10/05 02:37:47;;;;;;;4.07;1.12;;;14.10;99.90;;;;;;4413024;32;20061;-65
2021/10/05 02:40:12;;;;;;;0.52;0.52;;;14.20;99.90;;;;;;4427203;32;20117;-65
2021/10/05 02:42:38;;;;;;;0.62;0.62;;;14.10;99.90;;;;;;4429177;32;20471;-65
2021/10/05 02:45:06;;;;;;;3.17;1.37;;;14.10;99.90;;;;;;4414841;32;20078;-65
2021/10/05 02:47:32;;;;;;;1.30;0.47;;;14.10;99.90;;;;;;4415480;32;20074;-65
2021/10/05 02:49:57;;;;;;;0.52;0.52;;;14.10;99.90;;;;;;4402862;32;20062;-65
2021/10/05 02:52:23;;;;;;;0.60;0.60;;;14.10;99.90;;;;;;4414911;32;20421;-65
2021/10/05 02:54:50;;;;;;;0.30;0.30;;;14.00;99.90;;;;;;4403495;32;20069;-65
2021/10/05 02:57:18;;;;;;;0.55;0.55;;;14.10;99.90;;;;;;4429049;32;20057;-65
2021/10/05 02:59:44;;;;;;;0.50;0.50;;;14.00;99.90;;;;;;4427414;32;20124;-65
2021/10/05 03:02:10;;;;;;;0.60;0.60;;;14.00;99.90;;;;;;4429276;32;20395;-65
2021/10/05 03:04:37;;;;;;;2.97;0.62;;;14.00;99.90;;;;;;4429025;32;20130;-65
2021/10/05 03:07:03;;;;;;;0.43;0.43;;;14.00;99.90;;;;;;4428125;32;20061;-65
2021/10/05 03:09:28;;;;;;;0.30;0.30;;;14.10;99.90;;;;;;4427623;32;20455;-65
2021/10/05 03:11:54;;;;;;;2.00;0.77;;;14.10;99.90;;;;;;4427473;32;20178;-65
2021/10/05 03:14:20;;;;;;;0.40;0.40;;;14.10;99.90;;;;;;4429277;32;20057;-65
2021/10/05 03:16:45;;;;;;;0.40;0.40;;;14.10;99.90;;;;;;4428384;32;20050;-65
2021/10/05 03:19:10;;;;;;;5.68;1.42;;;14.10;99.90;;;;;;4428625;32;20066;-65
2021/10/05 03:21:36;;;;;;;0.25;0.25;;;14.10;99.90;;;;;;4428150;32;20077;-65
2021/10/05 03:24:02;;;;;;;0.30;0.30;;;14.10;99.90;;;;;;4426933;32;20057;-65
2021/10/05 03:26:28;;;;;;;0.73;0.57;;;14.10;99.90;;;;;;4427714;32;20057;-65
2021/10/05 03:28:53;;;;;;;0.73;0.73;;;14.10;99.90;;;;;;4428528;32;20169;-65
2021/10/05 03:31:18;;;;;;;0.50;0.50;;;14.10;99.90;;;;;;4427770;32;20416;-65
2021/10/05 03:33:45;;;;;;;0.40;0.40;;;14.10;99.90;;;;;;4428448;32;20062;-65
2021/10/05 03:36:12;;;;;;;9.20;0.35;;;14.10;99.90;;;;;;4424289;32;20058;-65
2021/10/05 03:38:38;;;;;;;19.23;0.62;;;14.10;99.90;;;;;;4415650;32;20057;-65
2021/10/05 03:41:05;;;;;;;0.40;0.40;;;14.00;99.90;;;;;;4427183;32;20533;-65
2021/10/05 03:43:31;;;;;;;0.40;0.40;;;14.10;99.90;;;;;;4427830;32;20553;-65
2021/10/05 03:45:57;;;;;;;0.20;0.20;;;14.00;99.90;;;;;;4426283;32;20122;-65
2021/10/05 03:48:23;;;;;;;13.80;2.90;;;14.00;99.90;;;;;;4428057;32;20061;-65
2021/10/05 03:50:49;;;;;;;0.75;0.75;;;14.00;99.90;;;;;;4427182;32;20124;-65
2021/10/05 03:53:18;;;;;;;0.45;0.40;;;14.00;99.90;;;;;;4415134;32;20071;-65
2021/10/05 03:55:44;;;;;;;3.20;1.75;;;14.00;99.90;;;;;;4413892;32;20077;-65
2021/10/05 03:58:10;;;;;;;0.22;0.22;;;14.00;99.90;;;;;;4427291;32;20066;-65
2021/10/05 04:00:35;;;;;;;0.85;0.60;;;14.00;99.90;;;;;;4426317;32;20053;-65
2021/10/05 04:03:01;;;;;;;0.37;0.37;;;14.00;99.90;;;;;;4428327;32;20082;-65
2021/10/05 04:05:26;;;;;;;0.37;0.37;;;14.00;99.90;;;;;;4427047;32;20536;-65
2021/10/05 04:07:52;;;;;;;0.30;0.30;;;14.00;99.90;;;;;;4428386;32;20114;-65
2021/10/05 04:10:17;;;;;;;1.20;1.02;;;14.00;99.90;;;;;;4427677;32;20065;-65
2021/10/05 04:12:43;;;;;;;0.40;0.40;;;14.00;99.90;;;;;;4428271;32;20081;-65
2021/10/05 04:15:08;;;;;;;0.40;0.40;;;13.90;99.90;;;;;;4428267;32;20575;-65
2021/10/05 04:17:34;;;;;;;0.25;0.25;;;13.90;99.90;;;;;;4427393;32;20116;-65
2021/10/05 04:19:59;;;;;;;0.30;0.30;;;13.80;99.90;;;;;;4427238;32;20050;-65
2021/10/05 04:22:26;;;;;;;0.65;0.65;;;13.80;99.90;;;;;;4407125;32;20199;-65
2021/10/05 04:24:53;;;;;;;0.37;0.37;;;13.80;99.90;;;;;;4401052;32;20212;-65
2021/10/05 04:27:19;;;;;;;0.20;0.20;;;13.80;99.90;;;;;;4402816;32;20172;-65
2021/10/05 04:29:45;;;;;;;0.20;0.20;;;13.80;99.90;;;;;;4415782;32;20062;-65
2021/10/05 04:32:11;;;;;;;0.20;0.20;;;13.80;99.90;;;;;;4430226;32;20061;-65
2021/10/05 04:34:36;;;;;;;0.77;0.77;;;13.80;99.90;;;;;;4429542;32;20062;-65
2021/10/05 04:37:02;;;;;;;0.30;0.30;;;13.80;99.90;;;;;;4421910;32;20086;-65
2021/10/05 04:39:28;;;;;;;0.25;0.25;;;13.80;99.90;;;;;;4422837;32;20412;-65
2021/10/05 04:41:53;;;;;;;0.60;0.60;;;13.80;99.90;;;;;;4415110;32;20058;-65
2021/10/05 04:44:19;;;;;;;0.85;0.50;;;13.90;99.90;;;;;;4415230;32;20070;-65
2021/10/05 04:46:44;;;;;;;0.50;0.50;;;13.90;99.90;;;;;;4415536;32;20058;-65
2021/10/05 04:49:10;;;;;;;0.45;0.35;;;13.80;99.90;;;;;;4415412;32;20061;-65
2021/10/05 04:51:35;;;;;;;0.30;0.30;;;13.80;99.90;;;;;;4413828;32;20120;-65
2021/10/05 04:54:01;;;;;;;1.48;0.55;;;13.80;99.90;;;;;;4407228;32;20131;-64
2021/10/05 04:56:26;;;;;;;0.30;0.30;;;13.80;99.90;;;;;;4399999;32;20070;-63
2021/10/05 04:58:52;;;;;;;0.37;0.20;;;13.80;99.90;;;;;;4401561;32;20067;-63
2021/10/05 05:01:17;;;;;;;0.30;0.30;;;13.80;99.90;;;;;;4405968;32;20734;-64
2021/10/05 05:03:43;;;;;;;0.73;0.62;;;13.70;99.90;;;;;;4389623;32;20110;-63
2021/10/05 05:06:09;;;;;;;0.65;0.30;;;13.70;99.90;;;;;;4411794;32;20125;-63
2021/10/05 05:08:35;;;;;;;0.77;0.60;;;13.70;99.90;;;;;;4420422;32;20058;-63
2021/10/05 05:11:01;;;;;;;0.68;0.68;;;13.70;99.90;;;;;;4425596;32;20077;-65
2021/10/05 05:13:26;;;;;;;0.28;0.28;;;13.60;99.90;;;;;;4391831;32;20057;-64
2021/10/05 05:15:52;;;;;;;4.37;0.65;;;13.60;99.90;;;;;;4413662;32;20526;-64
2021/10/05 05:18:17;;;;;;;0.30;0.30;;;13.60;99.90;;;;;;4394893;32;20058;-64
2021/10/05 05:20:43;;;;;;;0.20;0.20;;;13.60;99.90;;;;;;4416857;32;20127;-64
2021/10/05 05:23:08;;;;;;;0.25;0.25;;;13.60;99.90;;;;;;4428793;32;20582;-64
2021/10/05 05:25:34;;;;;;;6.20;0.77;;;13.70;99.90;;;;;;4425078;32;20550;-64
2021/10/05 05:27:59;;;;;;;0.52;0.52;;;13.60;99.90;;;;;;4384507;32;20197;-64
2021/10/05 05:30:25;;;;;;;0.22;0.22;;;13.60;99.90;;;;;;4393865;32;20403;-64
2021/10/05 05:32:51;;;;;;;0.65;0.60;;;13.60;99.90;;;;;;4384460;32;20073;-64
2021/10/05 05:35:18;;;;;;;0.30;0.30;;;13.60;99.90;;;;;;4397741;32;20078;-65
2021/10/05 05:37:47;;;;;;;1.87;0.30;;;13.60;99.90;;;;;;4391304;32;20066;-65
2021/10/05 05:40:16;;;;;;;1.17;1.00;;;13.60;99.90;;;;;;4400891;32;20066;-65
2021/10/05 05:42:42;;;;;;;0.32;0.32;;;13.70;99.90;;;;;;4410670;32;20113;-65
2021/10/05 05:45:08;;;;;;;0.30;0.30;;;13.70;99.90;;;;;;4380200;32;20695;-65
2021/10/05 05:47:36;;;;;;;0.30;0.30;;;13.70;99.90;;;;;;4386995;32;20251;-65
2021/10/05 05:50:04;;;;;;;2.53;1.20;;;13.60;99.90;;;;;;4410699;32;20065;-65
2021/10/05 05:52:30;;;;;;;1.02;0.73;;;13.70;99.90;;;;;;4404243;32;20062;-65
2021/10/05 05:54:56;;;;;;;0.43;0.43;;;13.70;99.90;;;;;;4390622;32;20211;-65
2021/10/05 05:57:21;;;;;;;0.40;0.40;;;13.70;99.90;;;;;;4394037;32;20074;-65
2021/10/05 05:59:47;;;;;;;0.30;0.30;;;13.70;99.90;;;;;;4405674;32;20053;-65
2021/10/05 06:02:12;;;;;;;0.65;0.50;;;13.70;99.90;;;;;;4404289;32;20077;-66
2021/10/05 06:04:38;;;;;;;0.30;0.30;;;13.70;99.90;;;;;;4399828;32;20587;-65
2021/10/05 06:07:04;;;;;;;0.40;0.40;;;13.70;99.90;;;;;;4398044;32;20057;-66
2021/10/05 06:09:32;;;;;;;0.40;0.40;;;13.70;99.90;;;;;;4391137;32;20739;-66
2021/10/05 06:12:02;;;;;;;0.60;0.37;;;13.70;99.90;;;;;;4389846;32;20077;-65
2021/10/05 06:14:29;;;;;;;0.40;0.40;;;13.80;99.90;;;;;;4387789;32;20322;-65
2021/10/05 06:16:55;;;;;;;0.40;0.40;;;13.70;99.90;;;;;;4395941;32;20082;-64
2021/10/05 06:19:20;;;;;;;3.60;0.77;;;13.70;99.90;;;;;;4389573;32;20062;-64
2021/10/05 06:21:46;;;;;;;3.12;0.65;;;13.80;99.90;;;;;;4398852;32;20432;-64
2021/10/05 06:24:11;;;;;;;4.03;0.65;;;13.70;99.90;;;;;;4399480;32;86563;-64
2021/10/05 06:26:37;;;;;;;0.40;0.40;;;13.80;99.90;;;;;;4395332;32;20504;-65
2021/10/05 06:29:03;;;;;;;1.23;0.50;;;13.80;99.90;;;;;;4398694;32;20073;-66
2021/10/05 06:31:29;;;;;;;1.35;1.00;;;13.80;99.90;;;;;;4399258;32;20759;-66
2021/10/05 06:33:54;;;;;;;1.12;0.80;;;13.80;99.90;;;;;;4393248;32;20845;-65
2021/10/05 06:36:19;;;;;;;0.55;0.55;;;13.80;99.90;;;;;;4391119;32;20607;-65
2021/10/05 06:38:45;;;;;;;0.20;0.20;;;13.80;99.90;;;;;;4396891;32;20074;-65
2021/10/05 06:41:12;;;;;;;1.02;1.02;;;13.90;99.90;;;;;;4405246;32;20074;-67
2021/10/05 06:43:37;;;;;;;0.55;0.55;;;13.90;99.90;;;;;;4401357;32;20185;-66
2021/10/05 06:46:03;;;;;;;0.52;0.52;;;13.90;99.90;;;;;;4400685;32;20748;-65
2021/10/05 06:48:29;;;;;;;0.50;0.50;;;13.90;99.90;;;;;;4396004;32;20090;-66
2021/10/05 06:50:55;;;;;;;0.32;0.32;;;13.90;99.90;;;;;;4402339;32;20065;-66
2021/10/05 06:53:20;;;;;;;0.68;0.68;;;13.90;99.90;;;;;;4408643;32;20090;-66
2021/10/05 06:55:46;;;;;;;0.40;0.40;;;13.90;99.90;;;;;;4397609;32;20221;-66
2021/10/05 06:58:12;;;;;;;0.50;0.50;;;13.90;99.90;;;;;;4398884;32;20089;-66
2021/10/05 07:00:38;;;;;;;2.15;1.45;;;13.90;99.90;;;;;;4405890;32;20151;-66
2021/10/05 07:03:03;;;;;;;0.80;0.80;;;13.90;99.90;;;;;;4394609;32;20054;-66
2021/10/05 07:05:29;;;;;;;1.45;0.55;;;14.00;99.90;;;;;;4402977;32;20066;-66
2021/10/05 07:07:54;;;;;;;0.30;0.30;;;14.00;99.90;;;;;;4399610;32;20073;-66
2021/10/05 07:10:22;;;;;;;0.52;0.50;;;14.00;99.90;;;;;;4395548;32;20259;-66
2021/10/05 07:12:47;;;;;;;0.40;0.40;;;14.00;99.90;;;;;;4399004;32;20077;-66
2021/10/05 07:15:14;;;;;;;0.30;0.30;;;14.00;99.90;;;;;;4397750;32;20577;-66
2021/10/05 07:17:40;;;;;;;1.20;0.75;;;14.10;99.90;;;;;;4397281;32;20066;-66
2021/10/05 07:20:06;;;;;;;0.60;0.60;;;14.10;99.90;;;;;;4394175;32;20919;-66
2021/10/05 07:22:32;;;;;;;0.47;0.47;;;14.10;99.90;;;;;;4393736;32;20077;-66
2021/10/05 07:24:58;;;;;;;1.10;0.70;;;14.10;99.90;;;;;;4394776;32;20090;-67
2021/10/05 07:27:24;;;;;;;1.30;0.60;;;14.10;99.90;;;;;;4396371;32;20074;-66
2021/10/05 07:29:49;;;;;;;1.17;0.60;;;14.10;99.90;;;;;;4395239;32;20089;-66
2021/10/05 07:32:15;;;;;;;0.40;0.40;;;14.10;99.90;;;;;;4394597;32;20086;-66
2021/10/05 07:34:40;;;;;;;0.43;0.40;;;14.10;99.90;;;;;;4400525;32;20127;-66
2021/10/05 07:37:06;;;;;;;0.30;0.30;;;14.10;99.90;;;;;;4404269;32;20086;-66
2021/10/05 07:39:31;;;;;;;0.85;0.70;;;14.00;99.90;;;;;;4401154;32;20073;-65
2021/10/05 07:41:57;;;;;;;0.57;0.57;;;14.10;99.90;;;;;;4396101;32;20057;-64
2021/10/05 07:44:22;;;;;;;1.20;0.62;;;14.10;99.90;;;;;;4405393;32;20132;-66
2021/10/05 07:46:48;;;;;;;1.35;1.17;;;14.10;99.90;;;;;;4403903;32;20074;-67
2021/10/05 07:49:14;;;;;;;0.50;0.50;;;14.10;99.90;;;;;;4404412;32;20585;-66
2021/10/05 07:51:40;;;;;;;0.50;0.50;;;14.20;99.90;;;;;;4395713;32;20524;-66
2021/10/05 07:54:06;;;;;;;0.47;0.47;;;14.20;99.90;;;;;;4402879;32;20070;-64
2021/10/05 07:56:33;;;;;;;0.60;0.60;;;14.20;99.90;;;;;;4395480;32;20737;-66
2021/10/05 07:58:58;;;;;;;1.98;1.27;;;14.30;99.90;;;;;;4402032;32;20144;-66
2021/10/05 08:01:24;;;;;;;0.73;0.60;;;14.20;99.90;;;;;;4402421;32;20128;-67
2021/10/05 08:03:50;;;;;;;8.45;1.85;;;14.20;99.90;;;;;;4400879;32;20082;-66
2021/10/05 08:06:15;;;;;;;2.00;0.80;;;14.30;99.90;;;;;;4410522;32;20116;-66
2021/10/05 08:08:41;;;;;;;0.70;0.70;;;14.30;99.90;;;;;;4409457;32;20089;-66
2021/10/05 08:11:06;;;;;;;6.18;2.20;;;14.30;99.90;;;;;;4399249;32;20516;-67
2021/10/05 08:13:32;;;;;;;2.33;0.70;;;14.20;99.90;;;;;;4405439;32;20578;-67
2021/10/05 08:15:57;;;;;;;3.15;0.70;;;14.20;99.90;;;;;;4405164;32;20102;-67
2021/10/05 08:18:23;;;;;;;2.55;0.73;;;14.30;99.90;;;;;;4407657;32;20431;-65
2021/10/05 08:20:50;;;;;;;0.85;0.77;;;14.30;99.90;;;;;;4399547;32;20098;-64
2021/10/05 08:23:16;;;;;;;1.08;0.57;;;14.30;99.90;;;;;;4404531;32;20422;-64
2021/10/05 08:25:43;;;;;;;1.12;0.70;;;14.40;99.90;;;;;;4402308;32;20069;-64
2021/10/05 08:28:10;;;;;;;0.32;0.32;;;14.30;99.90;;;;;;4397648;32;21351;-66
2021/10/05 08:30:37;;;;;;;7.47;1.05;;;14.30;99.90;;;;;;4405099;32;20598;-66
2021/10/05 08:33:03;;;;;;;2.05;1.55;;;14.30;99.90;;;;;;4394212;32;20475;-64
2021/10/05 08:35:28;;;;;;;5.87;0.80;;;14.30;99.90;;;;;;4407101;32;20065;-66
2021/10/05 08:37:56;;;;;;;0.68;0.68;;;14.30;99.90;;;;;;4392704;32;20409;-66
2021/10/05 08:40:23;;;;;;;0.70;0.70;;;14.30;99.90;;;;;;4406262;32;20083;-64
2021/10/05 08:42:49;;;;;;;1.27;0.90;;;14.30;99.90;;;;;;4374542;32;20070;-68
2021/10/05 08:45:16;;;;;;;1.08;0.70;;;14.30;99.90;;;;;;4396858;32;20069;-64
2021/10/05 08:47:41;;;;;;;1.30;1.00;;;14.30;99.90;;;;;;4388727;32;20066;-66
2021/10/05 08:50:08;;;;;;;2.47;0.80;;;14.30;99.90;;;;;;4384185;32;20061;-67
2021/10/05 08:52:33;;;;;;;0.73;0.73;;;14.30;99.90;;;;;;4385424;32;20143;-66
2021/10/05 08:55:00;;;;;;;1.17;0.77;;;14.30;99.90;;;;;;4400758;32;20943;-64
2021/10/05 08:57:25;;;;;;;1.12;0.62;;;14.40;99.90;;;;;;4387857;32;20465;-66
2021/10/05 08:59:51;;;;;;;16.37;0.90;;;14.40;99.90;;;;;;4393895;32;20070;-67
2021/10/05 09:02:19;;;;;;;0.37;0.37;;;14.40;99.90;;;;;;4395422;32;20585;-64
2021/10/05 09:04:46;;;;;;;3.15;1.40;;;14.40;99.90;;;;;;4378469;32;22383;-64
2021/10/05 09:07:22;;;;;;;1.17;1.05;;;14.40;99.90;;;;;;4400072;32;20465;-64
2021/10/05 09:09:55;;;;;;;1.05;0.80;;;14.40;99.90;;;;;;4387313;32;20078;-64
2021/10/05 09:12:23;;;;;;;3.12;1.25;;;14.50;99.90;;;;;;4396124;32;20068;-66
2021/10/05 09:14:49;;;;;;;1.02;0.73;;;14.40;99.90;;;;;;4400708;32;20077;-66
2021/10/05 09:17:20;;;;;;;1.08;0.73;;;14.30;99.90;;;;;;4402650;32;20413;-66
2021/10/05 09:19:46;;;;;;;2.65;0.65;;;14.30;99.90;;;;;;4388616;32;20065;-66
2021/10/05 09:22:18;;;;;;;2.60;0.95;;;14.40;99.90;;;;;;4396178;32;20789;-66
2021/10/05 09:24:47;;;;;;;2.97;1.10;;;14.30;99.90;;;;;;4392979;32;20065;-66
2021/10/05 09:27:13;;;;;;;1.50;0.73;;;14.40;99.90;;;;;;4391674;32;20081;-67
2021/10/05 09:29:39;;;;;;;2.55;0.85;;;14.40;99.90;;;;;;4369068;32;21505;-63
2021/10/05 09:32:09;;;;;;;0.50;0.50;;;14.50;99.90;;;;;;4375526;32;20078;-66
2021/10/05 09:34:54;;;;;;;0.45;0.45;;;14.50;99.90;;;;;;4395412;32;20095;-65
2021/10/05 09:37:26;;;;;;;1.95;0.80;;;14.50;99.90;;;;;;4374401;32;20090;-65
2021/10/05 09:39:54;;;;;;;2.87;1.12;;;14.50;99.90;;;;;;4381610;32;20157;-66
2021/10/05 09:42:28;;;;;;;0.73;0.68;;;14.50;99.90;;;;;;4388959;32;20091;-65
2021/10/05 09:44:57;;;;;;;1.30;0.88;;;14.60;99.90;;;;;;4391527;32;20086;-65
2021/10/05 09:47:42;;;;;;;2.85;2.10;;;14.60;99.90;;;;;;4390237;32;20173;-63
2021/10/05 09:50:13;;;;;;;1.05;0.75;;;14.60;99.90;;;;;;4390276;32;20737;-65
2021/10/05 09:52:44;;;;;;;2.12;0.73;;;14.60;99.90;;;;;;4374297;32;20102;-65
2021/10/05 09:55:10;;;;;;;15.10;1.73;;;14.60;99.90;;;;;;4378835;32;20201;-65
2021/10/05 09:57:36;;;;;;;1.20;0.75;;;14.60;99.90;;;;;;4383433;32;20114;-66
2021/10/05 10:00:04;;;;;;;0.50;0.50;;;14.60;99.90;;;;;;4386463;32;20069;-65
2021/10/05 10:02:31;;;;;;;0.90;0.90;;;14.60;99.90;;;;;;4398086;32;20504;-65
2021/10/05 10:04:56;;;;;;;1.80;0.98;;;14.70;99.90;;;;;;4395353;32;20069;-65
2021/10/05 10:07:22;;;;;;;0.70;0.70;;;14.60;99.90;;;;;;4402610;32;20062;-65
2021/10/05 10:09:48;;;;;;;5.07;0.93;;;14.60;99.90;;;;;;4406989;32;20093;-65
2021/10/05 10:12:13;;;;;;;2.40;0.98;;;14.60;99.90;;;;;;4409309;32;20102;-65
2021/10/05 10:14:39;;;;;;;2.72;1.40;;;14.60;99.90;;;;;;4406661;32;20077;-65
2021/10/05 10:17:05;;;;;;;1.95;1.02;;;14.60;99.90;;;;;;4398825;32;20062;-65
2021/10/05 10:19:32;;;;;;;2.50;1.15;;;14.70;99.90;;;;;;4413068;32;20117;-66
2021/10/05 10:22:08;;;;;;;1.00;0.90;;;14.70;99.90;;;;;;4402520;32;20077;-64
2021/10/05 10:24:52;;;;;;;1.23;1.00;;;14.70;99.90;;;;;;4400214;32;20089;-64
2021/10/05 10:27:20;;;;;;;1.80;1.12;;;14.70;99.90;;;;;;4388880;32;20093;-65
2021/10/05 10:29:46;;;;;;;1.33;1.20;;;14.70;99.90;;;;;;4399848;32;20062;-65
2021/10/05 10:32:17;;;;;;;1.20;1.02;;;14.80;99.90;;;;;;4403530;32;20073;-66
2021/10/05 10:34:45;;;;;;;0.68;0.68;;;14.80;99.90;;;;;;4401697;32;20106;-65
2021/10/05 10:37:16;;;;;;;0.70;0.70;;;14.80;99.90;;;;;;4405888;32;20456;-64
2021/10/05 10:39:43;;;;;;;2.78;1.05;;;14.90;99.90;;;;;;4404386;32;20070;-64
2021/10/05 10:42:09;;;;;;;0.85;0.85;;;14.90;99.90;;;;;;4401981;32;20392;-65
2021/10/05 10:44:38;;;;;;;3.20;1.00;;;14.80;99.90;;;;;;4402278;32;20073;-66
2021/10/05 10:47:09;;;;;;;2.17;1.27;;;14.80;99.90;;;;;;4399563;32;20520;-65
2021/10/05 10:49:34;;;;;;;6.10;1.55;;;14.90;99.90;;;;;;4400901;32;20086;-64
2021/10/05 10:52:00;;;;;;;1.73;1.12;;;14.90;99.90;;;;;;4404875;32;20093;-65
2021/10/05 10:54:26;;;;;;;0.85;0.82;;;14.90;99.90;;;;;;4398286;32;20601;-65
2021/10/05 10:57:08;;;;;;;1.33;0.80;;;14.90;99.90;;;;;;4398654;32;20140;-65
2021/10/05 10:59:34;;;;;;;1.55;1.05;;;14.90;99.90;;;;;;4385848;32;20106;-65
2021/10/05 11:02:04;;;;;;;2.08;1.60;;;14.90;99.90;;;;;;4384309;32;22329;-65
2021/10/05 11:04:31;;;;;;;1.42;1.33;;;14.90;99.90;;;;;;4389541;32;20080;-65
2021/10/05 11:06:58;;;;;;;8.45;2.00;;;14.80;99.90;;;;;;4385959;32;20070;-65
2021/10/05 11:09:28;;;;;;;0.93;0.93;;;14.90;99.90;;;;;;4408002;32;20165;-65
2021/10/05 11:11:57;;;;;;;3.75;1.00;;;14.80;99.90;;;;;;4389805;32;20551;-65
2021/10/05 11:14:27;;;;;;;0.98;0.98;;;14.80;99.90;;;;;;4389038;32;20087;-65
2021/10/05 11:16:58;;;;;;;1.10;0.93;;;14.80;99.90;;;;;;4389863;32;20604;-65
2021/10/05 11:19:29;;;;;;;0.70;0.70;;;14.80;99.90;;;;;;4383408;32;20355;-65
2021/10/05 11:21:56;;;;;;;4.28;1.55;;;14.80;99.90;;;;;;4390107;32;20089;-65
2021/10/05 11:24:22;;;;;;;1.37;1.08;;;14.80;99.90;;;;;;4399920;32;20108;-65
2021/10/05 11:26:50;;;;;;;1.27;1.12;;;14.80;99.90;;;;;;4385005;32;20070;-65
2021/10/05 11:29:26;;;;;;;2.17;1.48;;;14.80;99.90;;;;;;4405986;32;20066;-65
2021/10/05 11:31:56;;;;;;;2.53;1.65;;;14.80;99.90;;;;;;4404645;32;20082;-65
2021/10/05 11:34:21;;;;;;;1.33;1.10;;;14.80;99.90;;;;;;4406006;32;20419;-65
2021/10/05 11:36:47;;;;;;;2.37;1.67;;;14.90;99.90;;;;;;4408844;32;20077;-65
2021/10/05 11:39:29;;;;;;;1.73;1.20;;;14.90;99.90;;;;;;4396861;32;20066;-66
2021/10/05 11:42:00;;;;;;;8.80;2.22;;;14.90;99.90;;;;;;4385267;32;20492;-66
2021/10/05 11:44:29;;;;;;;2.17;1.20;;;14.90;99.90;;;;;;4392226;32;20147;-66
2021/10/05 11:47:04;;;;;;;4.15;1.98;;;14.90;99.90;;;;;;4387849;32;20062;-66
2021/10/05 11:49:33;;;;;;;2.97;1.15;;;14.90;99.90;;;;;;4405914;32;20066;-66
2021/10/05 11:51:59;;;;;;;6.50;2.08;;;14.90;99.90;;;;;;4404407;32;20976;-65
2021/10/05 11:54:27;;;;;;;5.00;1.40;;;15.00;99.90;;;;;;4409411;32;20058;-66
2021/10/05 11:56:55;;;;;;;3.83;1.30;;;15.00;99.90;;;;;;4408186;32;20139;-66
2021/10/05 11:59:27;;;;;;;1.02;0.95;;;15.10;99.90;;;;;;4403502;32;20085;-67
2021/10/05 12:01:57;;;;;;;1.10;1.00;;;15.10;99.90;;;;;;4404529;32;20730;-66
2021/10/05 12:04:25;;;;;;;2.83;0.82;;;15.10;99.90;;;;;;4391916;32;20082;-66
2021/10/05 12:06:55;;;;;;;1.83;1.20;;;15.00;99.90;;;;;;4403313;32;20515;-66
2021/10/05 12:09:24;;;;;;;2.70;0.98;;;15.00;99.90;;;;;;4394395;32;20080;-66
2021/10/05 12:11:51;;;;;;;5.53;1.87;;;15.00;99.90;;;;;;4405652;32;20081;-66
2021/10/05 12:14:18;;;;;;;1.65;1.40;;;14.90;99.90;;;;;;4407758;32;20062;-66
2021/10/05 12:17:03;;;;;;;3.05;1.33;;;14.90;99.90;;;;;;4390315;32;20066;-65
2021/10/05 12:19:35;;;;;;;7.55;2.30;;;15.00;99.90;;;;;;4408520;32;20065;-65
2021/10/05 12:22:04;;;;;;;1.70;1.08;;;14.90;99.90;;;;;;4390399;32;20085;-65
2021/10/05 12:24:49;;;;;;;1.58;1.23;;;14.90;99.90;;;;;;4391846;32;20094;-66
2021/10/05 12:27:19;;;;;;;4.57;1.67;;;14.90;99.90;;;;;;4386574;32;20127;-65
2021/10/05 12:29:48;;;;;;;11.23;1.42;;;14.90;99.90;;;;;;4387843;32;21018;-66
2021/10/05 12:32:13;;;;;;;3.80;1.52;;;14.90;99.90;;;;;;4401947;32;20516;-65
2021/10/05 12:34:41;;;;;;;1.58;1.33;;;14.90;99.90;;;;;;4401017;32;20477;-66
2021/10/05 12:37:08;;;;;;;3.33;1.35;;;15.00;99.90;;;;;;4402955;32;20110;-66
2021/10/05 12:39:34;;;;;;;2.05;0.90;;;15.00;99.90;;;;;;4395377;32;20194;-66
2021/10/05 12:42:03;;;;;;;1.55;1.27;;;15.00;99.90;;;;;;4388681;32;20066;-66
2021/10/05 12:44:33;;;;;;;3.83;1.40;;;15.10;99.90;;;;;;4372607;32;20369;-67